Time;durP1;ratioP1;P1;durP2;ratioP2;P2;SDS_P1;SDS_P2;PMS_P1;PMS_P2;Temp;Humidity;BMP_temperature;BMP_pressure;BME280_temperature;BME280_humidity;BME280_pressure;Samples;Min_cycle;Max_cycle;Signal;HPM_P1;HPM_P2
2022/07/16 00:02:48;;;;;;;;;;;;;;;16.06;63.44;100615.69;5057254;28;925;-62
2022/07/16 00:05:14;;;;;;;;;;;;;;;18.89;58.61;100616.97;5059305;28;1107;-63
2022/07/16 00:07:39;;;;;;;;;;;;;;;15.42;63.42;100614.19;5057231;28;1190;-62
2022/07/16 00:10:05;;;;;;;;;;;;;;;17.61;61.38;100610.59;5057350;28;1025;-60
2022/07/16 00:12:30;;;;;;;;;;;;;;;18.33;58.40;100601.00;5056723;28;1152;-62
2022/07/16 00:14:55;;;;;;;;;;;;;;;15.56;65.21;100605.19;5056641;28;1969;-62
2022/07/16 00:17:21;;;;;;;;;;;;;;;18.75;59.54;100607.75;5057199;28;1075;-62
2022/07/16 00:19:46;;;;;;;;;;;;;;;16.04;63.12;100602.25;5057165;28;1020;-63
2022/07/16 00:22:12;;;;;;;;;;;;;;;16.36;59.66;100603.06;5057015;28;1001;-61
2022/07/16 00:24:37;;;;;;;;;;;;;;;17.10;54.20;100596.03;5060054;28;1167;-62
2022/07/16 00:27:03;;;;;;;;;;;;;;;17.18;52.58;100602.03;5058569;28;903;-62
2022/07/16 00:29:28;;;;;;;;;;;;;;;17.22;51.16;100595.72;5055427;28;2744;-64
2022/07/16 00:31:54;;;;;;;;;;;;;;;17.25;50.41;100599.78;5056152;28;1163;-63
2022/07/16 00:34:19;;;;;;;;;;;;;;;17.33;49.33;100585.47;5056473;28;1965;-62
2022/07/16 00:36:45;;;;;;;;;;;;;;;17.28;49.19;100589.06;5056378;28;1139;-62
2022/07/16 00:39:11;;;;;;;;;;;;;;;18.01;51.65;100589.44;5056304;28;911;-61
2022/07/16 00:41:36;;;;;;;;;;;;;;;15.13;59.75;100584.53;5056485;28;1025;-63
2022/07/16 00:44:03;;;;;;;;;;;;;;;17.80;57.41;100586.00;5056398;28;1198;-60
2022/07/16 00:46:29;;;;;;;;;;;;;;;18.59;56.67;100582.28;5056060;28;1029;-61
2022/07/16 00:48:54;;;;;;;;;;;;;;;15.46;63.22;100587.88;5056588;28;970;-61
2022/07/16 00:51:22;;;;;;;;;;;;;;;17.02;54.35;100574.63;5061351;28;958;-61
2022/07/16 00:53:48;;;;;;;;;;;;;;;17.18;52.16;100577.31;5055182;28;1189;-63
2022/07/16 00:56:13;;;;;;;;;;;;;;;18.33;54.34;100599.06;5056301;28;2051;-63
2022/07/16 00:58:40;;;;;;;;;;;;;;;14.82;62.89;100598.88;5057383;28;2400;-60
2022/07/16 01:01:05;;;;;;;;;;;;;;;18.32;57.37;100593.88;5056298;28;997;-63
2022/07/16 01:03:31;;;;;;;;;;;;;;;16.51;61.54;100580.25;5055772;28;996;-63
2022/07/16 01:05:56;;;;;;;;;;;;;;;16.75;61.89;100586.78;5056469;28;1068;-63
2022/07/16 01:08:22;;;;;;;;;;;;;;;19.10;57.46;100583.66;5056093;28;857;-62
2022/07/16 01:10:47;;;;;;;;;;;;;;;15.12;63.84;100589.16;5055475;28;1028;-62
2022/07/16 01:13:13;;;;;;;;;;;;;;;17.98;60.55;100587.28;5055506;28;1029;-62
2022/07/16 01:15:38;;;;;;;;;;;;;;;17.34;60.85;100587.13;5055516;28;1979;-64
2022/07/16 01:18:03;;;;;;;;;;;;;;;15.87;62.21;100594.28;5055636;28;978;-62
2022/07/16 01:20:29;;;;;;;;;;;;;;;17.12;54.95;100584.75;5056136;28;1151;-62
2022/07/16 01:22:54;;;;;;;;;;;;;;;17.22;52.72;100578.38;5058672;28;1459;-63
2022/07/16 01:25:20;;;;;;;;;;;;;;;17.22;51.53;100575.63;5055150;28;1092;-61
2022/07/16 01:27:45;;;;;;;;;;;;;;;17.28;50.32;100580.00;5051894;28;2550;-64
2022/07/16 01:30:11;;;;;;;;;;;;;;;17.56;51.54;100581.22;5059015;28;1108;-62
2022/07/16 01:32:36;;;;;;;;;;;;;;;15.97;58.76;100582.50;5052361;28;1206;-62
2022/07/16 01:35:02;;;;;;;;;;;;;;;16.99;58.64;100582.63;5055670;28;1913;-62
2022/07/16 01:37:28;;;;;;;;;;;;;;;18.98;57.04;100578.56;5056604;28;981;-63
2022/07/16 01:39:53;;;;;;;;;;;;;;;15.06;63.77;100582.03;5055724;28;1048;-63
2022/07/16 01:42:18;;;;;;;;;;;;;;;18.08;59.49;100578.91;5055880;28;846;-62
2022/07/16 01:44:44;;;;;;;;;;;;;;;17.39;60.19;100584.34;5055748;28;1013;-60
2022/07/16 01:47:10;;;;;;;;;;;;;;;15.94;61.81;100583.06;5058982;28;1009;-61
2022/07/16 01:49:36;;;;;;;;;;;;;;;17.04;54.73;100583.44;5056745;28;1005;-63
2022/07/16 01:52:16;;;;;;;;;;;;;;;17.23;52.42;100580.84;5024508;28;1077;-63
2022/07/16 01:54:43;;;;;;;;;;;;;;;17.26;51.07;100582.22;5048747;28;1973;-62
2022/07/16 01:57:08;;;;;;;;;;;;;;;17.21;50.24;100590.50;5051411;28;2532;-61
2022/07/16 01:59:33;;;;;;;;;;;;;;;17.21;49.69;100585.81;5055375;28;1013;-64
2022/07/16 02:01:59;;;;;;;;;;;;;;;17.19;49.25;100590.75;5055638;28;1104;-63
2022/07/16 02:04:24;;;;;;;;;;;;;;;18.24;51.94;100598.06;5057385;28;1219;-63
2022/07/16 02:06:50;;;;;;;;;;;;;;;14.68;60.48;100611.41;5065295;28;878;-63
2022/07/16 02:09:15;;;;;;;;;;;;;;;18.00;56.83;100615.31;5059055;28;1063;-62
2022/07/16 02:11:41;;;;;;;;;;;;;;;17.61;58.02;100608.69;5059264;28;1112;-63
2022/07/16 02:14:06;;;;;;;;;;;;;;;16.10;62.99;100594.03;5060166;28;1909;-62
2022/07/16 02:16:31;;;;;;;;;;;;;;;18.97;57.14;100593.44;5061238;28;1048;-63
2022/07/16 02:18:57;;;;;;;;;;;;;;;15.66;62.75;100587.13;5059162;28;1057;-62
2022/07/16 02:21:22;;;;;;;;;;;;;;;16.72;57.26;100592.03;5058854;28;1147;-62
2022/07/16 02:23:48;;;;;;;;;;;;;;;17.20;53.21;100591.59;5033944;28;1366;-62
2022/07/16 02:26:13;;;;;;;;;;;;;;;17.19;51.58;100598.19;5058821;28;1187;-63
2022/07/16 02:28:38;;;;;;;;;;;;;;;17.61;52.24;100597.69;5062346;28;2558;-62
2022/07/16 02:31:04;;;;;;;;;;;;;;;15.77;58.24;100599.75;5058168;28;1076;-62
2022/07/16 02:33:29;;;;;;;;;;;;;;;17.09;58.67;100596.31;5058568;28;1191;-61
2022/07/16 02:35:55;;;;;;;;;;;;;;;18.84;56.20;100599.66;5058811;28;1905;-61
2022/07/16 02:38:20;;;;;;;;;;;;;;;14.92;63.62;100594.56;5058383;28;1167;-61
2022/07/16 02:40:46;;;;;;;;;;;;;;;18.40;58.75;100602.31;5058831;28;981;-61
2022/07/16 02:43:11;;;;;;;;;;;;;;;17.18;60.09;100591.03;5059146;28;1068;-61
2022/07/16 02:45:37;;;;;;;;;;;;;;;16.35;63.13;100593.19;5058867;28;1151;-61
2022/07/16 02:48:03;;;;;;;;;;;;;;;19.07;57.73;100596.09;5059007;28;977;-61
2022/07/16 02:50:28;;;;;;;;;;;;;;;15.39;63.27;100599.94;5061527;28;6873;-61
2022/07/16 02:52:54;;;;;;;;;;;;;;;18.01;60.64;100610.66;5052820;28;1184;-59
2022/07/16 02:55:19;;;;;;;;;;;;;;;18.01;59.13;100608.69;5054068;28;1977;-61
2022/07/16 02:57:44;;;;;;;;;;;;;;;15.59;63.35;100603.81;5034177;28;2401;-63
2022/07/16 03:00:11;;;;;;;;;;;;;;;17.10;54.72;100598.78;5037350;28;1013;-61
2022/07/16 03:02:36;;;;;;;;;;;;;;;17.28;52.50;100602.00;5038167;28;1175;-60
2022/07/16 03:05:03;;;;;;;;;;;;;;;17.30;51.01;100601.72;5041524;28;1100;-59
2022/07/16 03:07:29;;;;;;;;;;;;;;;17.27;50.22;100603.09;5037890;28;1136;-60
2022/07/16 03:09:54;;;;;;;;;;;;;;;17.34;49.47;100600.84;5038226;28;1033;-61
2022/07/16 03:12:20;;;;;;;;;;;;;;;18.07;51.77;100591.03;5037679;28;1141;-60
2022/07/16 03:14:46;;;;;;;;;;;;;;;14.90;60.84;100603.06;5041677;28;1917;-58
2022/07/16 03:17:12;;;;;;;;;;;;;;;18.31;56.69;100612.28;5037471;28;1052;-59
2022/07/16 03:19:38;;;;;;;;;;;;;;;16.14;60.76;100603.34;5020133;28;1136;-59
2022/07/16 03:22:03;;;;;;;;;;;;;;;16.90;60.79;100609.81;5039516;28;1231;-60
2022/07/16 03:24:29;;;;;;;;;;;;;;;18.93;56.73;100615.28;5038040;28;1128;-60
2022/07/16 03:26:54;;;;;;;;;;;;;;;14.91;63.75;100601.94;5038111;28;1140;-59
2022/07/16 03:29:20;;;;;;;;;;;;;;;18.08;59.31;100595.44;5035439;28;2656;-59
2022/07/16 03:31:45;;;;;;;;;;;;;;;16.96;60.44;100603.22;5038506;28;1129;-59
2022/07/16 03:34:11;;;;;;;;;;;;;;;15.88;60.89;100612.41;5037437;28;1906;-60
2022/07/16 03:36:36;;;;;;;;;;;;;;;16.99;54.30;100621.88;5037900;28;1033;-60
2022/07/16 03:39:04;;;;;;;;;;;;;;;17.21;52.11;100621.53;5037385;28;994;-63
2022/07/16 03:41:31;;;;;;;;;;;;;;;17.16;51.09;100612.50;5037694;28;1065;-63
2022/07/16 03:43:57;;;;;;;;;;;;;;;17.22;50.33;100614.94;5037569;28;1112;-63
2022/07/16 03:46:23;;;;;;;;;;;;;;;17.43;54.65;100626.66;5040601;28;982;-67
2022/07/16 03:48:48;;;;;;;;;;;;;;;16.02;61.15;100634.63;5037447;28;1092;-63
2022/07/16 03:51:14;;;;;;;;;;;;;;;18.76;56.75;100623.97;5037571;28;1088;-60
2022/07/16 03:53:39;;;;;;;;;;;;;;;15.77;62.38;100626.31;5038024;28;1105;-60
2022/07/16 03:56:05;;;;;;;;;;;;;;;16.57;57.41;100628.56;5037322;28;1914;-62
2022/07/16 03:58:30;;;;;;;;;;;;;;;17.10;53.13;100630.94;5037016;28;2378;-63
2022/07/16 04:00:56;;;;;;;;;;;;;;;17.13;51.75;100624.88;5037342;28;1104;-64
2022/07/16 04:03:21;;;;;;;;;;;;;;;17.18;50.56;100624.84;5037103;28;978;-63
2022/07/16 04:05:47;;;;;;;;;;;;;;;17.18;49.72;100630.34;5036991;28;1018;-65
2022/07/16 04:08:12;;;;;;;;;;;;;;;17.20;49.54;100625.38;5037117;28;985;-63
2022/07/16 04:10:38;;;;;;;;;;;;;;;18.05;53.11;100634.53;5040310;28;1001;-59
2022/07/16 04:13:03;;;;;;;;;;;;;;;15.69;61.20;100639.47;5038957;28;1136;-60
2022/07/16 04:15:29;;;;;;;;;;;;;;;18.68;56.03;100641.13;5037203;28;1914;-57
2022/07/16 04:17:54;;;;;;;;;;;;;;;16.09;61.53;100639.84;5036787;28;1116;-59
2022/07/16 04:20:20;;;;;;;;;;;;;;;17.47;60.30;100628.84;5038832;28;1029;-59
2022/07/16 04:22:45;;;;;;;;;;;;;;;19.38;55.59;100637.03;5036331;28;1160;-58
2022/07/16 04:25:12;;;;;;;;;;;;;;;15.06;64.18;100636.78;5036656;28;1080;-59
2022/07/16 04:27:38;;;;;;;;;;;;;;;18.36;59.22;100648.03;5037748;28;2695;-59
2022/07/16 04:30:04;;;;;;;;;;;;;;;16.85;61.61;100642.78;5036833;28;1053;-58
2022/07/16 04:32:29;;;;;;;;;;;;;;;16.11;60.87;100642.31;5036612;28;1033;-58
2022/07/16 04:34:55;;;;;;;;;;;;;;;17.17;54.52;100641.63;5036538;28;1985;-58
2022/07/16 04:37:20;;;;;;;;;;;;;;;17.22;52.53;100633.34;5036628;28;1057;-58
2022/07/16 04:39:46;;;;;;;;;;;;;;;17.37;51.21;100641.50;5036296;28;919;-58
2022/07/16 04:42:11;;;;;;;;;;;;;;;17.33;50.14;100634.13;5039598;28;1132;-59
2022/07/16 04:44:36;;;;;;;;;;;;;;;17.23;49.99;100652.28;5036306;28;994;-62
2022/07/16 04:47:02;;;;;;;;;;;;;;;17.23;49.51;100648.72;5038912;28;1148;-59
2022/07/16 04:49:27;;;;;;;;;;;;;;;17.21;49.17;100649.00;5018587;28;1096;-60
2022/07/16 04:51:53;;;;;;;;;;;;;;;17.26;48.96;100650.91;5036051;28;1168;-58
2022/07/16 04:54:18;;;;;;;;;;;;;;;17.15;48.81;100649.31;5035923;28;1905;-59
2022/07/16 04:56:44;;;;;;;;;;;;;;;17.21;48.43;100648.19;5042810;28;1052;-59
2022/07/16 04:59:10;;;;;;;;;;;;;;;18.26;51.21;100653.66;5037662;28;2555;-59
2022/07/16 05:01:36;;;;;;;;;;;;;;;14.57;59.91;100654.25;5036149;28;1002;-58
2022/07/16 05:04:02;;;;;;;;;;;;;;;18.04;55.11;100654.09;5035845;28;1061;-61
2022/07/16 05:06:27;;;;;;;;;;;;;;;17.19;58.09;100655.88;5036512;28;993;-57
2022/07/16 05:08:53;;;;;;;;;;;;;;;16.24;60.98;100660.94;5039421;28;1053;-57
2022/07/16 05:11:18;;;;;;;;;;;;;;;18.93;55.88;100667.63;5036524;28;1073;-57
2022/07/16 05:13:43;;;;;;;;;;;;;;;15.43;63.25;100665.16;5036098;28;1054;-60
2022/07/16 05:16:09;;;;;;;;;;;;;;;17.29;59.28;100672.31;5035812;28;2000;-60
2022/07/16 05:18:34;;;;;;;;;;;;;;;17.91;58.32;100667.38;5036190;28;970;-59
2022/07/16 05:21:00;;;;;;;;;;;;;;;15.50;62.48;100673.94;5036052;28;975;-60
2022/07/16 05:23:25;;;;;;;;;;;;;;;16.98;55.07;100675.19;5036596;28;1033;-59
2022/07/16 05:25:51;;;;;;;;;;;;;;;17.19;52.54;100678.69;5036223;28;1005;-61
2022/07/16 05:28:16;;;;;;;;;;;;;;;17.18;51.55;100674.31;5035883;28;2561;-63
2022/07/16 05:30:42;;;;;;;;;;;;;;;17.23;50.84;100673.47;5042160;28;1037;-62
2022/07/16 05:33:07;;;;;;;;;;;;;;;17.14;50.35;100672.38;5041138;28;982;-61
2022/07/16 05:35:32;;;;;;;;;;;;;;;17.24;49.70;100661.38;5036022;28;1993;-59
2022/07/16 05:37:58;;;;;;;;;;;;;;;17.27;49.21;100666.31;5036242;28;1069;-58
2022/07/16 05:40:23;;;;;;;;;;;;;;;17.22;49.08;100669.91;5039178;28;1380;-59
2022/07/16 05:42:49;;;;;;;;;;;;;;;17.86;50.55;100680.31;5040095;28;1014;-60
2022/07/16 05:45:14;;;;;;;;;;;;;;;15.06;58.22;100692.38;5039514;28;1254;-59
2022/07/16 05:47:40;;;;;;;;;;;;;;;17.64;55.80;100684.25;5039889;28;978;-59
2022/07/16 05:50:05;;;;;;;;;;;;;;;18.52;54.50;100692.75;5034222;28;1176;-60
2022/07/16 05:52:31;;;;;;;;;;;;;;;16.85;59.57;100692.22;5051792;28;1223;-60
2022/07/16 05:54:57;;;;;;;;;;;;;;;17.82;56.33;100687.47;5039740;28;1976;-59
2022/07/16 05:57:22;;;;;;;;;;;;;;;17.78;56.10;100696.31;5044516;28;2402;-59
2022/07/16 05:59:48;;;;;;;;;;;;;;;17.75;56.04;100690.53;5039876;28;1120;-60
2022/07/16 06:02:13;;;;;;;;;;;;;;;17.70;55.82;100685.91;5039601;28;1033;-54
2022/07/16 06:04:38;;;;;;;;;;;;;;;17.70;56.08;100696.91;5036777;28;1016;-55
2022/07/16 06:07:04;;;;;;;;;;;;;;;17.58;56.05;100696.41;5039818;28;1068;-56
2022/07/16 06:09:29;;;;;;;;;;;;;;;17.64;55.83;100700.75;5039923;28;1101;-61
2022/07/16 06:11:55;;;;;;;;;;;;;;;17.56;55.97;100696.69;5039747;28;1025;-60
2022/07/16 06:14:20;;;;;;;;;;;;;;;17.55;56.09;100702.47;5039832;28;1910;-60
2022/07/16 06:16:46;;;;;;;;;;;;;;;17.49;56.13;100706.31;5038954;28;1041;-60
2022/07/16 06:19:11;;;;;;;;;;;;;;;17.49;56.11;100715.41;5040415;28;1017;-60
2022/07/16 06:21:36;;;;;;;;;;;;;;;17.50;55.96;100710.72;5042857;28;1069;-61
2022/07/16 06:24:02;;;;;;;;;;;;;;;17.43;56.20;100711.03;5039334;28;1064;-58
2022/07/16 06:26:27;;;;;;;;;;;;;;;17.37;56.28;100704.72;5039317;28;1164;-60
2022/07/16 06:28:53;;;;;;;;;;;;;;;17.37;56.20;100703.91;5038611;28;2604;-59
2022/07/16 06:31:18;;;;;;;;;;;;;;;17.34;56.36;100699.78;5043639;28;1148;-58
2022/07/16 06:33:44;;;;;;;;;;;;;;;17.31;56.30;100703.13;5039212;28;1203;-59
2022/07/16 06:36:09;;;;;;;;;;;;;;;17.31;56.41;100702.31;5039053;28;1894;-59
2022/07/16 06:38:35;;;;;;;;;;;;;;;17.28;56.64;100709.19;5039222;28;1092;-59
2022/07/16 06:41:00;;;;;;;;;;;;;;;17.24;56.56;100702.59;5038513;28;910;-59
2022/07/16 06:43:25;;;;;;;;;;;;;;;17.24;56.45;100702.59;5021043;28;1200;-60
2022/07/16 06:45:51;;;;;;;;;;;;;;;17.22;56.66;100700.13;5032531;28;1120;-59
2022/07/16 06:48:16;;;;;;;;;;;;;;;17.23;56.47;100701.75;5038345;28;1021;-60
2022/07/16 06:50:42;;;;;;;;;;;;;;;17.22;56.32;100700.13;5037029;28;1057;-60
2022/07/16 06:53:07;;;;;;;;;;;;;;;17.21;56.44;100698.47;5037947;28;989;-59
2022/07/16 06:55:33;;;;;;;;;;;;;;;17.18;56.47;100696.28;5038419;28;1977;-60
2022/07/16 06:57:58;;;;;;;;;;;;;;;17.13;56.69;100701.78;5038761;28;2386;-61
2022/07/16 07:00:24;;;;;;;;;;;;;;;17.15;56.56;100699.56;5038664;28;1089;-59
2022/07/16 07:02:49;;;;;;;;;;;;;;;17.14;56.60;100710.84;5038438;28;1010;-58
2022/07/16 07:05:15;;;;;;;;;;;;;;;17.10;56.76;100700.41;5039561;28;1131;-58
2022/07/16 07:07:40;;;;;;;;;;;;;;;17.10;56.68;100703.16;5039573;28;1164;-58
2022/07/16 07:10:06;;;;;;;;;;;;;;;17.11;56.34;100698.50;5038621;28;1010;-59
2022/07/16 07:12:32;;;;;;;;;;;;;;;17.05;56.73;100705.91;5038701;28;1001;-65
2022/07/16 07:14:58;;;;;;;;;;;;;;;17.05;56.82;100705.91;5038160;28;1992;-65
2022/07/16 07:17:23;;;;;;;;;;;;;;;17.02;56.97;100695.50;5038068;28;1120;-63
2022/07/16 07:19:49;;;;;;;;;;;;;;;17.05;56.90;100705.91;5041984;28;998;-62
2022/07/16 07:22:14;;;;;;;;;;;;;;;17.03;56.75;100702.63;5038089;28;1160;-62
2022/07/16 07:24:39;;;;;;;;;;;;;;;17.05;56.50;100705.09;5037750;28;1203;-64
2022/07/16 07:27:05;;;;;;;;;;;;;;;16.98;57.02;100716.38;5038272;28;1136;-65
2022/07/16 07:29:31;;;;;;;;;;;;;;;16.99;56.98;100719.97;5041886;28;2868;-63
2022/07/16 07:31:56;;;;;;;;;;;;;;;16.96;56.91;100718.59;5041748;28;1145;-64
2022/07/16 07:34:22;;;;;;;;;;;;;;;17.01;56.79;100720.50;5038048;28;1985;-64
2022/07/16 07:36:48;;;;;;;;;;;;;;;16.99;56.78;100714.47;5037788;28;1129;-64
2022/07/16 07:39:13;;;;;;;;;;;;;;;16.96;56.87;100718.59;5037631;28;1466;-64
2022/07/16 07:41:39;;;;;;;;;;;;;;;16.91;57.06;100713.94;5037930;28;1120;-64
2022/07/16 07:44:04;;;;;;;;;;;;;;;16.93;57.17;100719.16;5037722;28;1017;-64
2022/07/16 07:46:30;;;;;;;;;;;;;;;16.95;56.83;100722.44;5038219;28;1037;-63
2022/07/16 07:48:55;;;;;;;;;;;;;;;16.95;56.94;100727.94;5019942;28;1046;-64
2022/07/16 07:51:20;;;;;;;;;;;;;;;16.92;56.98;100728.50;5038106;28;1006;-63
2022/07/16 07:53:46;;;;;;;;;;;;;;;16.90;56.80;100726.03;5037325;28;1240;-64
2022/07/16 07:56:12;;;;;;;;;;;;;;;16.88;57.20;100728.19;5037777;28;1917;-64
2022/07/16 07:58:38;;;;;;;;;;;;;;;16.90;56.81;100725.19;5039534;28;2388;-63
2022/07/16 08:01:03;;;;;;;;;;;;;;;16.85;57.07;100725.97;5035820;28;1042;-64
2022/07/16 08:03:29;;;;;;;;;;;;;;;16.84;57.02;100727.06;5036905;28;1041;-62
2022/07/16 08:05:54;;;;;;;;;;;;;;;16.88;56.79;100732.84;5037650;28;1136;-64
2022/07/16 08:08:19;;;;;;;;;;;;;;;16.82;57.08;100729.28;5043700;28;985;-64
2022/07/16 08:10:45;;;;;;;;;;;;;;;16.79;57.43;100731.75;5042860;28;1021;-63
2022/07/16 08:13:10;;;;;;;;;;;;;;;16.85;56.89;100733.41;5037449;28;986;-62
2022/07/16 08:15:36;;;;;;;;;;;;;;;16.83;57.18;100735.59;5041565;28;1902;-63
2022/07/16 08:18:01;;;;;;;;;;;;;;;16.83;56.98;100738.34;5036772;28;1124;-64
2022/07/16 08:20:27;;;;;;;;;;;;;;;16.76;57.24;100736.72;5037704;28;1061;-62
2022/07/16 08:22:52;;;;;;;;;;;;;;;16.79;57.23;100734.50;5037114;28;1128;-63
2022/07/16 08:28:02;;;;;;;;;;;;;;;16.79;57.14;100735.34;5036653;28;2673;-65
2022/07/16 08:30:27;;;;;;;;;;;;;;;16.77;57.33;100738.38;5039332;28;895;-61
2022/07/16 08:32:53;;;;;;;;;;;;;;;16.77;57.33;100740.28;5038983;28;998;-61
2022/07/16 08:35:18;;;;;;;;;;;;;;;16.75;57.25;100742.47;5040348;28;1906;-59
2022/07/16 08:37:44;;;;;;;;;;;;;;;16.74;57.52;100740.81;5036632;28;1029;-65
2022/07/16 08:40:11;;;;;;;;;;;;;;;16.77;57.08;100738.38;5040320;28;1168;-60
2022/07/16 08:42:36;;;;;;;;;;;;;;;16.75;57.20;100737.81;5036554;28;975;-60
2022/07/16 08:45:03;;;;;;;;;;;;;;;16.74;57.37;100736.16;5036705;28;1144;-60
2022/07/16 08:47:29;;;;;;;;;;;;;;;16.69;57.61;100744.41;5037043;28;1073;-61
2022/07/16 08:49:55;;;;;;;;;;;;;;;16.73;57.35;100736.44;5036181;28;1148;-61
2022/07/16 08:52:21;;;;;;;;;;;;;;;16.75;57.47;100740.56;5036624;28;1179;-61
2022/07/16 08:54:47;;;;;;;;;;;;;;;16.74;57.17;100747.13;5018405;28;1919;-61
2022/07/16 08:57:13;;;;;;;;;;;;;;;16.69;57.51;100741.66;5013140;28;2582;-61
2022/07/16 08:59:38;;;;;;;;;;;;;;;16.73;57.36;100747.41;5041163;28;832;-64
2022/07/16 09:02:04;;;;;;;;;;;;;;;16.71;57.42;100738.63;5036781;28;1097;-61
2022/07/16 09:04:29;;;;;;;;;;;;;;;16.70;57.29;100737.78;5036275;28;1077;-63
2022/07/16 09:06:54;;;;;;;;;;;;;;;16.71;57.15;100750.44;5033879;28;883;-61
2022/07/16 09:09:20;;;;;;;;;;;;;;;16.71;57.22;100741.38;5036586;28;1005;-60
2022/07/16 09:11:46;;;;;;;;;;;;;;;16.71;57.43;100749.63;5036553;28;1037;-62
2022/07/16 09:14:15;;;;;;;;;;;;;;;16.70;57.50;100751.53;5035746;28;1054;-61
2022/07/16 09:16:44;;;;;;;;;;;;;;;16.71;57.51;100747.69;5036629;28;1906;-60
2022/07/16 09:19:17;;;;;;;;;;;;;;;16.64;57.71;100749.06;5035986;28;1049;-60
2022/07/16 09:22:02;;;;;;;;;;;;;;;16.67;57.69;100760.31;5029745;28;1108;-60
2022/07/16 09:24:40;;;;;;;;;;;;;;;16.64;57.70;100754.56;5018649;28;1010;-59
2022/07/16 09:27:09;;;;;;;;;;;;;;;16.63;57.63;100742.75;5038728;28;1152;-59
2022/07/16 09:29:56;;;;;;;;;;;;;;;16.65;57.75;100757.03;5033494;28;1057;-58
2022/07/16 09:32:27;;;;;;;;;;;;;;;16.67;57.41;100749.34;5029894;28;994;-62
2022/07/16 09:35:02;;;;;;;;;;;;;;;16.69;57.52;100749.91;5036121;28;1918;-59
2022/07/16 09:37:43;;;;;;;;;;;;;;;16.62;57.75;100757.59;5035882;28;1021;-58
2022/07/16 09:40:08;;;;;;;;;;;;;;;16.68;57.72;100756.47;5037185;28;1021;-64
2022/07/16 09:42:37;;;;;;;;;;;;;;;16.66;57.53;100755.94;5039304;28;867;-61
2022/07/16 09:45:03;;;;;;;;;;;;;;;16.66;57.68;100753.19;5036092;28;1180;-63
2022/07/16 09:47:28;;;;;;;;;;;;;;;16.62;57.66;100754.84;5039359;28;1006;-61
2022/07/16 09:49:54;;;;;;;;;;;;;;;16.64;57.62;100755.38;5018352;28;1105;-63
2022/07/16 09:52:26;;;;;;;;;;;;;;;16.65;57.85;100748.81;5035730;28;1172;-60
2022/07/16 09:54:55;;;;;;;;;;;;;;;16.63;57.73;100753.72;5035810;28;1906;-62
2022/07/16 09:57:21;;;;;;;;;;;;;;;16.62;57.90;100757.59;5035718;28;2505;-63
2022/07/16 09:59:47;;;;;;;;;;;;;;;16.64;57.68;100749.88;5042280;28;951;-62
2022/07/16 10:02:12;;;;;;;;;;;;;;;16.65;57.68;100753.44;5037333;28;1030;-62
2022/07/16 10:04:38;;;;;;;;;;;;;;;16.64;57.56;100747.16;5039819;28;1017;-62
2022/07/16 10:07:03;;;;;;;;;;;;;;;16.60;57.67;100744.13;5035945;28;903;-61
2022/07/16 10:09:29;;;;;;;;;;;;;;;16.63;57.72;100737.25;5039991;28;1251;-66
2022/07/16 10:11:55;;;;;;;;;;;;;;;16.63;57.72;100750.16;5035714;28;1042;-60
2022/07/16 10:14:21;;;;;;;;;;;;;;;16.62;57.80;100746.59;5018202;28;1977;-63
2022/07/16 10:16:46;;;;;;;;;;;;;;;16.64;57.96;100744.41;5017918;28;1034;-62
2022/07/16 10:19:12;;;;;;;;;;;;;;;16.61;57.72;100744.97;5035466;28;1184;-62
2022/07/16 10:21:37;;;;;;;;;;;;;;;16.60;57.82;100744.13;5035758;28;1009;-61
2022/07/16 10:24:06;;;;;;;;;;;;;;;16.65;57.83;100745.22;5035547;28;1077;-61
2022/07/16 10:26:34;;;;;;;;;;;;;;;16.66;57.66;100746.88;5038812;28;1177;-62
2022/07/16 10:29:00;;;;;;;;;;;;;;;16.63;57.81;100750.16;5039259;28;2613;-64
2022/07/16 10:31:37;;;;;;;;;;;;;;;16.68;57.63;100742.75;5039130;28;1140;-62
2022/07/16 10:34:15;;;;;;;;;;;;;;;16.62;57.95;100746.59;5039261;28;978;-61
2022/07/16 10:36:50;;;;;;;;;;;;;;;16.61;57.91;100750.44;5039141;28;1918;-62
2022/07/16 10:39:15;;;;;;;;;;;;;;;16.65;57.81;100748.81;5039402;28;966;-61
2022/07/16 10:41:54;;;;;;;;;;;;;;;16.64;57.82;100738.91;5038436;28;1080;-62
2022/07/16 10:44:20;;;;;;;;;;;;;;;16.65;57.94;100734.22;5040925;28;1065;-62
2022/07/16 10:46:52;;;;;;;;;;;;;;;16.62;57.86;100743.88;5041733;28;1021;-61
2022/07/16 10:49:17;;;;;;;;;;;;;;;16.62;57.73;100743.88;5038959;28;1056;-61
2022/07/16 10:52:09;;;;;;;;;;;;;;;16.63;58.00;100748.22;5039331;28;1096;-63
2022/07/16 10:54:40;;;;;;;;;;;;;;;16.64;57.92;100743.59;5030554;28;1906;-60
2022/07/16 10:57:09;;;;;;;;;;;;;;;16.65;57.92;100747.97;5038886;28;1073;-59
2022/07/16 10:59:35;;;;;;;;;;;;;;;16.64;57.90;100744.41;5040202;28;1022;-62
2022/07/16 11:02:02;;;;;;;;;;;;;;;16.64;57.92;100740.84;5039145;28;1065;-60
2022/07/16 11:04:29;;;;;;;;;;;;;;;16.66;57.84;100731.25;5037988;28;1010;-61
2022/07/16 11:06:55;;;;;;;;;;;;;;;16.68;57.75;100733.69;5038507;28;1041;-61
2022/07/16 11:09:30;;;;;;;;;;;;;;;16.66;58.09;100741.38;5037975;28;1128;-60
2022/07/16 11:11:56;;;;;;;;;;;;;;;16.67;57.89;100746.59;5038557;28;1081;-61
2022/07/16 11:14:27;;;;;;;;;;;;;;;16.65;57.86;100732.31;5038495;28;1113;-62
2022/07/16 11:16:52;;;;;;;;;;;;;;;16.67;57.97;100743.84;5038558;28;993;-61
2022/07/16 11:19:18;;;;;;;;;;;;;;;16.64;57.89;100733.41;5037827;28;1148;-61
2022/07/16 11:21:56;;;;;;;;;;;;;;;16.62;57.97;100730.13;5038487;28;1013;-60
2022/07/16 11:24:22;;;;;;;;;;;;;;;16.65;58.07;100735.06;5037790;28;1088;-60
2022/07/16 11:26:48;;;;;;;;;;;;;;;16.64;57.79;100732.59;5038140;28;1014;-60
2022/07/16 11:29:13;;;;;;;;;;;;;;;16.66;57.82;100735.88;5039115;28;2954;-63
2022/07/16 11:31:39;;;;;;;;;;;;;;;16.63;57.73;100731.75;5039267;28;1172;-61
2022/07/16 11:34:05;;;;;;;;;;;;;;;16.67;57.77;100730.13;5037909;28;1022;-61
2022/07/16 11:36:34;;;;;;;;;;;;;;;16.64;58.11;100727.94;5037432;28;1909;-61
2022/07/16 11:39:05;;;;;;;;;;;;;;;16.66;58.06;100724.91;5034374;28;1017;-60
2022/07/16 11:41:34;;;;;;;;;;;;;;;16.69;58.01;100730.69;5038156;28;1046;-62
2022/07/16 11:44:07;;;;;;;;;;;;;;;16.68;58.06;100723.53;5037858;28;1291;-61
2022/07/16 11:46:32;;;;;;;;;;;;;;;16.68;57.96;100726.28;5039618;28;1206;-60
2022/07/16 11:48:58;;;;;;;;;;;;;;;16.64;57.91;100727.13;5037917;28;1124;-60
2022/07/16 11:51:23;;;;;;;;;;;;;;;16.65;58.13;100724.09;5037711;28;1136;-62
2022/07/16 11:53:52;;;;;;;;;;;;;;;16.69;57.89;100722.44;5037436;28;1111;-60
2022/07/16 11:56:36;;;;;;;;;;;;;;;16.65;58.01;100715.00;5042862;28;1902;-62
2022/07/16 11:59:02;;;;;;;;;;;;;;;16.73;58.04;100720.78;5040367;28;2564;-62
2022/07/16 12:01:32;;;;;;;;;;;;;;;16.66;58.24;100719.41;5038572;28;1046;-63
2022/07/16 12:03:57;;;;;;;;;;;;;;;16.67;58.09;100718.31;5019553;28;1488;-64
2022/07/16 12:06:22;;;;;;;;;;;;;;;16.70;57.98;100721.31;5019545;28;1018;-63
2022/07/16 12:08:54;;;;;;;;;;;;;;;16.69;57.94;100713.38;5037093;28;1168;-62
2022/07/16 12:11:20;;;;;;;;;;;;;;;16.69;58.02;100719.69;5036482;28;1053;-63
2022/07/16 12:13:52;;;;;;;;;;;;;;;16.73;57.92;100718.06;5019516;28;1221;-62
2022/07/16 12:16:18;;;;;;;;;;;;;;;16.72;57.97;100716.41;5037120;28;1906;-62
2022/07/16 12:19:00;;;;;;;;;;;;;;;16.67;58.13;100716.38;5037154;28;1010;-60
2022/07/16 12:21:26;;;;;;;;;;;;;;;16.70;58.20;100717.75;5036814;28;1089;-60
2022/07/16 12:23:51;;;;;;;;;;;;;;;16.69;58.04;100721.59;5036951;28;1077;-60
2022/07/16 12:26:17;;;;;;;;;;;;;;;16.71;58.00;100722.16;5037209;28;1263;-59
2022/07/16 12:28:50;;;;;;;;;;;;;;;16.69;58.04;100724.34;5022598;28;2625;-62
2022/07/16 12:31:16;;;;;;;;;;;;;;;16.64;58.05;100727.94;5038131;28;1105;-59
2022/07/16 12:33:41;;;;;;;;;;;;;;;16.70;58.19;100724.06;5037050;28;1133;-59
2022/07/16 12:36:07;;;;;;;;;;;;;;;16.66;58.04;100725.75;5019297;28;1902;-59
2022/07/16 12:38:55;;;;;;;;;;;;;;;16.68;58.14;100729.03;5036184;28;1156;-60
2022/07/16 12:41:22;;;;;;;;;;;;;;;16.66;58.16;100725.75;5033590;28;1009;-61
2022/07/16 12:43:49;;;;;;;;;;;;;;;16.71;58.00;100722.97;5036345;28;1112;-60
2022/07/16 12:46:15;;;;;;;;;;;;;;;16.67;58.09;100718.31;5036902;28;1113;-60
2022/07/16 12:48:42;;;;;;;;;;;;;;;16.65;58.24;100721.34;5035905;28;1113;-59